sensor_id;sensor_type;location;lat;lon;timestamp;P1;durP1;ratioP1;P2;durP2;ratioP2
33160;SDS011;19522;45.656;11.302;2023-03-23T00:01:12;39.75;;;25.88;;
33160;SDS011;19522;45.656;11.302;2023-03-23T00:03:39;38.28;;;26.00;;
33160;SDS011;19522;45.656;11.302;2023-03-23T00:06:06;39.17;;;26.33;;
33160;SDS011;19522;45.656;11.302;2023-03-23T00:08:32;41.40;;;26.73;;
33160;SDS011;19522;45.656;11.302;2023-03-23T00:11:03;35.35;;;25.63;;
33160;SDS011;19522;45.656;11.302;2023-03-23T00:13:29;40.92;;;26.63;;
33160;SDS011;19522;45.656;11.302;2023-03-23T00:15:55;41.97;;;25.98;;
33160;SDS011;19522;45.656;11.302;2023-03-23T00:18:22;38.72;;;25.08;;
33160;SDS011;19522;45.656;11.302;2023-03-23T00:20:57;36.70;;;25.38;;
33160;SDS011;19522;45.656;11.302;2023-03-23T00:23:24;37.47;;;25.02;;
33160;SDS011;19522;45.656;11.302;2023-03-23T00:25:51;41.47;;;26.58;;
33160;SDS011;19522;45.656;11.302;2023-03-23T00:28:21;40.92;;;25.75;;
33160;SDS011;19522;45.656;11.302;2023-03-23T00:30:59;36.90;;;24.48;;
33160;SDS011;19522;45.656;11.302;2023-03-23T00:33:27;39.00;;;26.10;;
33160;SDS011;19522;45.656;11.302;2023-03-23T00:35:54;40.78;;;25.55;;
33160;SDS011;19522;45.656;11.302;2023-03-23T00:38:23;37.63;;;24.50;;
33160;SDS011;19522;45.656;11.302;2023-03-23T00:40:49;39.47;;;25.20;;
33160;SDS011;19522;45.656;11.302;2023-03-23T00:43:16;36.38;;;25.27;;
33160;SDS011;19522;45.656;11.302;2023-03-23T00:45:44;34.38;;;24.77;;
33160;SDS011;19522;45.656;11.302;2023-03-23T00:48:18;45.03;;;29.77;;
33160;SDS011;19522;45.656;11.302;2023-03-23T00:50:44;53.58;;;33.90;;
33160;SDS011;19522;45.656;11.302;2023-03-23T00:53:10;45.00;;;30.48;;
33160;SDS011;19522;45.656;11.302;2023-03-23T00:55:35;52.65;;;33.05;;
33160;SDS011;19522;45.656;11.302;2023-03-23T00:58:01;42.47;;;28.90;;
33160;SDS011;19522;45.656;11.302;2023-03-23T01:00:26;40.10;;;25.98;;
33160;SDS011;19522;45.656;11.302;2023-03-23T01:02:52;39.00;;;26.42;;
33160;SDS011;19522;45.656;11.302;2023-03-23T01:05:18;38.42;;;26.40;;
33160;SDS011;19522;45.656;11.302;2023-03-23T01:07:44;39.85;;;25.60;;
33160;SDS011;19522;45.656;11.302;2023-03-23T01:10:11;39.63;;;25.15;;
33160;SDS011;19522;45.656;11.302;2023-03-23T01:12:41;40.75;;;25.63;;
33160;SDS011;19522;45.656;11.302;2023-03-23T01:15:08;37.83;;;25.73;;
33160;SDS011;19522;45.656;11.302;2023-03-23T01:17:34;39.47;;;25.75;;
33160;SDS011;19522;45.656;11.302;2023-03-23T01:20:00;38.50;;;26.48;;
33160;SDS011;19522;45.656;11.302;2023-03-23T01:22:25;34.45;;;25.75;;
33160;SDS011;19522;45.656;11.302;2023-03-23T01:24:51;38.60;;;25.15;;
33160;SDS011;19522;45.656;11.302;2023-03-23T01:27:16;41.50;;;26.42;;
33160;SDS011;19522;45.656;11.302;2023-03-23T01:29:42;44.28;;;26.95;;
33160;SDS011;19522;45.656;11.302;2023-03-23T01:32:07;37.42;;;25.42;;
33160;SDS011;19522;45.656;11.302;2023-03-23T01:34:33;34.42;;;24.88;;
33160;SDS011;19522;45.656;11.302;2023-03-23T01:36:58;42.65;;;25.75;;
33160;SDS011;19522;45.656;11.302;2023-03-23T01:39:24;39.78;;;26.30;;
33160;SDS011;19522;45.656;11.302;2023-03-23T01:41:49;42.13;;;27.63;;
33160;SDS011;19522;45.656;11.302;2023-03-23T01:46:40;37.65;;;25.65;;
33160;SDS011;19522;45.656;11.302;2023-03-23T01:49:13;42.70;;;27.77;;
33160;SDS011;19522;45.656;11.302;2023-03-23T01:51:47;40.22;;;26.67;;
33160;SDS011;19522;45.656;11.302;2023-03-23T01:54:15;46.75;;;27.77;;
33160;SDS011;19522;45.656;11.302;2023-03-23T01:57:19;39.08;;;27.17;;
33160;SDS011;19522;45.656;11.302;2023-03-23T01:59:40;42.00;;;28.67;;
33160;SDS011;19522;45.656;11.302;2023-03-23T02:02:10;43.63;;;27.40;;
33160;SDS011;19522;45.656;11.302;2023-03-23T02:04:37;44.17;;;27.42;;
33160;SDS011;19522;45.656;11.302;2023-03-23T02:07:03;39.95;;;25.88;;
33160;SDS011;19522;45.656;11.302;2023-03-23T02:09:29;40.40;;;26.92;;
33160;SDS011;19522;45.656;11.302;2023-03-23T02:11:55;37.80;;;25.92;;
33160;SDS011;19522;45.656;11.302;2023-03-23T02:14:23;38.30;;;25.67;;
33160;SDS011;19522;45.656;11.302;2023-03-23T02:25:02;40.60;;;27.17;;
33160;SDS011;19522;45.656;11.302;2023-03-23T02:35:37;40.17;;;25.90;;
33160;SDS011;19522;45.656;11.302;2023-03-23T02:38:14;38.65;;;26.17;;
33160;SDS011;19522;45.656;11.302;2023-03-23T02:40:44;28.35;;;18.48;;
33160;SDS011;19522;45.656;11.302;2023-03-23T02:43:14;42.50;;;27.70;;
33160;SDS011;19522;45.656;11.302;2023-03-23T02:45:43;39.67;;;26.70;;
33160;SDS011;19522;45.656;11.302;2023-03-23T02:48:14;37.25;;;25.85;;
33160;SDS011;19522;45.656;11.302;2023-03-23T02:50:47;39.55;;;26.23;;
33160;SDS011;19522;45.656;11.302;2023-03-23T02:53:18;42.47;;;26.98;;
33160;SDS011;19522;45.656;11.302;2023-03-23T02:55:47;41.40;;;27.20;;
33160;SDS011;19522;45.656;11.302;2023-03-23T02:58:18;39.88;;;26.80;;
33160;SDS011;19522;45.656;11.302;2023-03-23T03:00:43;44.80;;;28.02;;
33160;SDS011;19522;45.656;11.302;2023-03-23T03:03:15;43.40;;;29.45;;
33160;SDS011;19522;45.656;11.302;2023-03-23T03:08:58;41.27;;;27.33;;
33160;SDS011;19522;45.656;11.302;2023-03-23T03:11:33;43.22;;;26.88;;
33160;SDS011;19522;45.656;11.302;2023-03-23T03:14:03;40.20;;;27.45;;
33160;SDS011;19522;45.656;11.302;2023-03-23T03:16:36;38.78;;;25.85;;
33160;SDS011;19522;45.656;11.302;2023-03-23T03:19:26;42.67;;;26.50;;
33160;SDS011;19522;45.656;11.302;2023-03-23T03:21:56;38.90;;;25.73;;
33160;SDS011;19522;45.656;11.302;2023-03-23T03:24:24;42.55;;;27.98;;
33160;SDS011;19522;45.656;11.302;2023-03-23T03:26:53;39.80;;;26.27;;
33160;SDS011;19522;45.656;11.302;2023-03-23T03:29:26;39.67;;;26.73;;
33160;SDS011;19522;45.656;11.302;2023-03-23T03:31:57;43.92;;;27.85;;
33160;SDS011;19522;45.656;11.302;2023-03-23T03:34:24;44.60;;;28.70;;
33160;SDS011;19522;45.656;11.302;2023-03-23T03:36:51;42.72;;;28.20;;
33160;SDS011;19522;45.656;11.302;2023-03-23T03:39:20;41.13;;;27.23;;
33160;SDS011;19522;45.656;11.302;2023-03-23T03:41:47;39.47;;;26.25;;
33160;SDS011;19522;45.656;11.302;2023-03-23T03:44:12;44.00;;;26.85;;
33160;SDS011;19522;45.656;11.302;2023-03-23T03:46:38;43.45;;;27.75;;
33160;SDS011;19522;45.656;11.302;2023-03-23T03:49:05;39.25;;;26.10;;
33160;SDS011;19522;45.656;11.302;2023-03-23T03:51:32;40.00;;;26.60;;
33160;SDS011;19522;45.656;11.302;2023-03-23T03:54:00;38.50;;;25.70;;
33160;SDS011;19522;45.656;11.302;2023-03-23T03:56:25;41.45;;;26.73;;
33160;SDS011;19522;45.656;11.302;2023-03-23T03:58:51;38.95;;;25.73;;
33160;SDS011;19522;45.656;11.302;2023-03-23T04:01:18;45.20;;;27.73;;
33160;SDS011;19522;45.656;11.302;2023-03-23T04:03:49;43.50;;;26.90;;
33160;SDS011;19522;45.656;11.302;2023-03-23T04:06:16;41.55;;;26.85;;
33160;SDS011;19522;45.656;11.302;2023-03-23T04:08:42;38.45;;;25.48;;
33160;SDS011;19522;45.656;11.302;2023-03-23T04:11:10;41.83;;;27.17;;
33160;SDS011;19522;45.656;11.302;2023-03-23T04:13:37;40.55;;;27.23;;
33160;SDS011;19522;45.656;11.302;2023-03-23T04:16:03;43.15;;;26.10;;
33160;SDS011;19522;45.656;11.302;2023-03-23T04:18:29;39.13;;;26.75;;
33160;SDS011;19522;45.656;11.302;2023-03-23T04:20:57;41.33;;;26.35;;
33160;SDS011;19522;45.656;11.302;2023-03-23T04:23:27;41.95;;;26.73;;
33160;SDS011;19522;45.656;11.302;2023-03-23T04:25:55;41.72;;;27.20;;
33160;SDS011;19522;45.656;11.302;2023-03-23T04:28:23;40.70;;;27.52;;
33160;SDS011;19522;45.656;11.302;2023-03-23T04:30:50;37.85;;;26.02;;
33160;SDS011;19522;45.656;11.302;2023-03-23T04:33:23;38.58;;;25.42;;
33160;SDS011;19522;45.656;11.302;2023-03-23T04:35:51;40.35;;;25.83;;
33160;SDS011;19522;45.656;11.302;2023-03-23T04:38:18;40.67;;;27.10;;
33160;SDS011;19522;45.656;11.302;2023-03-23T04:40:49;41.92;;;26.77;;
33160;SDS011;19522;45.656;11.302;2023-03-23T04:43:19;40.85;;;27.88;;
33160;SDS011;19522;45.656;11.302;2023-03-23T04:45:51;40.50;;;28.13;;
33160;SDS011;19522;45.656;11.302;2023-03-23T04:50:51;37.78;;;25.48;;
33160;SDS011;19522;45.656;11.302;2023-03-23T04:53:17;40.47;;;25.00;;
33160;SDS011;19522;45.656;11.302;2023-03-23T04:55:43;38.00;;;26.15;;
33160;SDS011;19522;45.656;11.302;2023-03-23T04:58:09;40.10;;;25.50;;
33160;SDS011;19522;45.656;11.302;2023-03-23T05:00:37;41.90;;;27.05;;
33160;SDS011;19522;45.656;11.302;2023-03-23T05:03:03;44.70;;;28.15;;
33160;SDS011;19522;45.656;11.302;2023-03-23T05:05:29;42.50;;;28.00;;
33160;SDS011;19522;45.656;11.302;2023-03-23T05:07:55;42.45;;;27.75;;
33160;SDS011;19522;45.656;11.302;2023-03-23T05:10:21;43.47;;;27.33;;
33160;SDS011;19522;45.656;11.302;2023-03-23T05:12:47;42.03;;;27.42;;
33160;SDS011;19522;45.656;11.302;2023-03-23T05:15:14;43.53;;;28.30;;
33160;SDS011;19522;45.656;11.302;2023-03-23T05:17:43;42.30;;;26.90;;
33160;SDS011;19522;45.656;11.302;2023-03-23T05:20:10;43.17;;;27.13;;
33160;SDS011;19522;45.656;11.302;2023-03-23T05:22:37;44.33;;;27.98;;
33160;SDS011;19522;45.656;11.302;2023-03-23T05:25:04;40.95;;;26.60;;
33160;SDS011;19522;45.656;11.302;2023-03-23T05:27:31;41.17;;;27.85;;
33160;SDS011;19522;45.656;11.302;2023-03-23T05:29:59;43.50;;;28.02;;
33160;SDS011;19522;45.656;11.302;2023-03-23T05:32:25;42.92;;;27.23;;
33160;SDS011;19522;45.656;11.302;2023-03-23T05:34:54;45.83;;;29.02;;
33160;SDS011;19522;45.656;11.302;2023-03-23T05:37:24;43.65;;;26.83;;
33160;SDS011;19522;45.656;11.302;2023-03-23T05:39:52;40.45;;;27.08;;
33160;SDS011;19522;45.656;11.302;2023-03-23T05:42:20;43.15;;;28.02;;
33160;SDS011;19522;45.656;11.302;2023-03-23T05:44:47;36.53;;;25.48;;
33160;SDS011;19522;45.656;11.302;2023-03-23T05:47:13;39.38;;;26.30;;
33160;SDS011;19522;45.656;11.302;2023-03-23T05:49:42;42.85;;;27.58;;
33160;SDS011;19522;45.656;11.302;2023-03-23T05:52:07;41.15;;;26.67;;
33160;SDS011;19522;45.656;11.302;2023-03-23T05:54:33;43.08;;;27.00;;
33160;SDS011;19522;45.656;11.302;2023-03-23T05:57:02;44.05;;;28.08;;
33160;SDS011;19522;45.656;11.302;2023-03-23T05:59:27;39.63;;;27.38;;
33160;SDS011;19522;45.656;11.302;2023-03-23T06:01:53;41.78;;;27.67;;
33160;SDS011;19522;45.656;11.302;2023-03-23T06:04:19;44.33;;;27.48;;
33160;SDS011;19522;45.656;11.302;2023-03-23T06:06:46;40.17;;;26.20;;
33160;SDS011;19522;45.656;11.302;2023-03-23T06:09:15;42.58;;;27.13;;
33160;SDS011;19522;45.656;11.302;2023-03-23T06:11:42;43.58;;;26.40;;
33160;SDS011;19522;45.656;11.302;2023-03-23T06:14:07;45.53;;;27.52;;
33160;SDS011;19522;45.656;11.302;2023-03-23T06:16:33;40.78;;;27.85;;
33160;SDS011;19522;45.656;11.302;2023-03-23T06:18:58;37.28;;;25.30;;
33160;SDS011;19522;45.656;11.302;2023-03-23T06:21:25;44.25;;;26.67;;
33160;SDS011;19522;45.656;11.302;2023-03-23T06:23:52;43.10;;;26.52;;
33160;SDS011;19522;45.656;11.302;2023-03-23T06:26:18;40.65;;;26.10;;
33160;SDS011;19522;45.656;11.302;2023-03-23T06:28:45;38.95;;;26.23;;
33160;SDS011;19522;45.656;11.302;2023-03-23T06:31:10;44.78;;;27.35;;
33160;SDS011;19522;45.656;11.302;2023-03-23T06:33:36;42.63;;;26.83;;
33160;SDS011;19522;45.656;11.302;2023-03-23T06:36:03;44.17;;;29.52;;
33160;SDS011;19522;45.656;11.302;2023-03-23T06:38:29;46.88;;;30.58;;
33160;SDS011;19522;45.656;11.302;2023-03-23T06:40:56;38.13;;;26.25;;
33160;SDS011;19522;45.656;11.302;2023-03-23T06:43:22;38.13;;;26.05;;
33160;SDS011;19522;45.656;11.302;2023-03-23T06:45:48;35.92;;;25.77;;
33160;SDS011;19522;45.656;11.302;2023-03-23T06:48:15;36.83;;;26.02;;
33160;SDS011;19522;45.656;11.302;2023-03-23T06:50:44;41.30;;;26.98;;
33160;SDS011;19522;45.656;11.302;2023-03-23T06:53:10;40.53;;;27.35;;
33160;SDS011;19522;45.656;11.302;2023-03-23T06:55:36;45.97;;;27.40;;
33160;SDS011;19522;45.656;11.302;2023-03-23T06:58:03;39.25;;;26.60;;
33160;SDS011;19522;45.656;11.302;2023-03-23T07:00:30;38.50;;;27.02;;
33160;SDS011;19522;45.656;11.302;2023-03-23T07:02:56;37.22;;;26.13;;
33160;SDS011;19522;45.656;11.302;2023-03-23T07:05:22;35.60;;;24.90;;
33160;SDS011;19522;45.656;11.302;2023-03-23T07:07:48;37.80;;;26.67;;
33160;SDS011;19522;45.656;11.302;2023-03-23T07:10:13;46.33;;;29.75;;
33160;SDS011;19522;45.656;11.302;2023-03-23T07:12:39;39.90;;;28.08;;
33160;SDS011;19522;45.656;11.302;2023-03-23T07:15:07;39.92;;;27.90;;
33160;SDS011;19522;45.656;11.302;2023-03-23T07:17:35;41.72;;;27.65;;
33160;SDS011;19522;45.656;11.302;2023-03-23T07:20:00;40.95;;;26.70;;
33160;SDS011;19522;45.656;11.302;2023-03-23T07:22:27;36.65;;;26.92;;
33160;SDS011;19522;45.656;11.302;2023-03-23T07:24:52;41.45;;;28.50;;
33160;SDS011;19522;45.656;11.302;2023-03-23T07:27:18;39.45;;;26.17;;
33160;SDS011;19522;45.656;11.302;2023-03-23T07:29:44;42.83;;;27.58;;
33160;SDS011;19522;45.656;11.302;2023-03-23T07:32:10;39.40;;;27.08;;
33160;SDS011;19522;45.656;11.302;2023-03-23T07:34:37;37.30;;;25.73;;
33160;SDS011;19522;45.656;11.302;2023-03-23T07:37:03;39.40;;;27.38;;
33160;SDS011;19522;45.656;11.302;2023-03-23T07:39:29;40.03;;;27.52;;
33160;SDS011;19522;45.656;11.302;2023-03-23T07:41:54;38.78;;;26.50;;
33160;SDS011;19522;45.656;11.302;2023-03-23T07:44:21;39.53;;;26.15;;
33160;SDS011;19522;45.656;11.302;2023-03-23T07:46:47;39.95;;;26.83;;
33160;SDS011;19522;45.656;11.302;2023-03-23T07:49:12;40.30;;;27.30;;
33160;SDS011;19522;45.656;11.302;2023-03-23T07:51:38;40.15;;;27.63;;
33160;SDS011;19522;45.656;11.302;2023-03-23T07:54:04;39.05;;;26.73;;
33160;SDS011;19522;45.656;11.302;2023-03-23T07:56:32;35.13;;;26.00;;
33160;SDS011;19522;45.656;11.302;2023-03-23T07:59:00;36.88;;;25.70;;
33160;SDS011;19522;45.656;11.302;2023-03-23T08:01:25;39.80;;;27.58;;
33160;SDS011;19522;45.656;11.302;2023-03-23T08:03:51;40.85;;;28.42;;
33160;SDS011;19522;45.656;11.302;2023-03-23T08:06:18;42.95;;;28.30;;
33160;SDS011;19522;45.656;11.302;2023-03-23T08:08:44;42.50;;;28.63;;
33160;SDS011;19522;45.656;11.302;2023-03-23T08:11:10;39.13;;;27.05;;
33160;SDS011;19522;45.656;11.302;2023-03-23T08:13:36;37.72;;;26.83;;
33160;SDS011;19522;45.656;11.302;2023-03-23T08:16:01;40.03;;;27.42;;
33160;SDS011;19522;45.656;11.302;2023-03-23T08:18:29;39.60;;;26.20;;
33160;SDS011;19522;45.656;11.302;2023-03-23T08:20:55;38.50;;;27.50;;
33160;SDS011;19522;45.656;11.302;2023-03-23T08:23:21;37.53;;;26.55;;
33160;SDS011;19522;45.656;11.302;2023-03-23T08:25:47;35.60;;;25.80;;
33160;SDS011;19522;45.656;11.302;2023-03-23T08:28:13;41.60;;;25.80;;
33160;SDS011;19522;45.656;11.302;2023-03-23T08:30:41;43.30;;;27.70;;
33160;SDS011;19522;45.656;11.302;2023-03-23T08:33:08;52.85;;;27.38;;
33160;SDS011;19522;45.656;11.302;2023-03-23T08:35:35;46.95;;;27.77;;
33160;SDS011;19522;45.656;11.302;2023-03-23T08:38:01;49.33;;;28.38;;
33160;SDS011;19522;45.656;11.302;2023-03-23T08:40:28;40.03;;;26.42;;
33160;SDS011;19522;45.656;11.302;2023-03-23T08:42:54;38.25;;;27.60;;
33160;SDS011;19522;45.656;11.302;2023-03-23T08:45:21;40.67;;;27.45;;
33160;SDS011;19522;45.656;11.302;2023-03-23T08:47:48;38.47;;;27.42;;
33160;SDS011;19522;45.656;11.302;2023-03-23T08:50:17;38.75;;;28.35;;
33160;SDS011;19522;45.656;11.302;2023-03-23T08:52:45;43.38;;;29.42;;
33160;SDS011;19522;45.656;11.302;2023-03-23T08:55:12;44.67;;;30.40;;
33160;SDS011;19522;45.656;11.302;2023-03-23T08:57:37;40.28;;;28.23;;
33160;SDS011;19522;45.656;11.302;2023-03-23T09:00:04;39.47;;;28.00;;
33160;SDS011;19522;45.656;11.302;2023-03-23T09:02:48;38.25;;;29.00;;
33160;SDS011;19522;45.656;11.302;2023-03-23T09:05:16;42.45;;;29.48;;
33160;SDS011;19522;45.656;11.302;2023-03-23T09:07:48;43.30;;;29.88;;
33160;SDS011;19522;45.656;11.302;2023-03-23T09:10:15;44.90;;;30.23;;
33160;SDS011;19522;45.656;11.302;2023-03-23T09:12:42;37.28;;;27.38;;
33160;SDS011;19522;45.656;11.302;2023-03-23T09:15:10;36.92;;;27.08;;
33160;SDS011;19522;45.656;11.302;2023-03-23T09:17:37;40.17;;;28.88;;
33160;SDS011;19522;45.656;11.302;2023-03-23T09:20:05;42.25;;;29.98;;
33160;SDS011;19522;45.656;11.302;2023-03-23T09:22:39;43.50;;;30.25;;
33160;SDS011;19522;45.656;11.302;2023-03-23T09:25:13;44.72;;;31.63;;
33160;SDS011;19522;45.656;11.302;2023-03-23T09:27:41;42.90;;;30.65;;
33160;SDS011;19522;45.656;11.302;2023-03-23T09:30:11;43.22;;;31.67;;
33160;SDS011;19522;45.656;11.302;2023-03-23T09:32:38;43.15;;;30.52;;
33160;SDS011;19522;45.656;11.302;2023-03-23T09:35:05;42.83;;;30.50;;
33160;SDS011;19522;45.656;11.302;2023-03-23T09:37:37;38.47;;;28.80;;
33160;SDS011;19522;45.656;11.302;2023-03-23T09:40:04;40.70;;;29.23;;
33160;SDS011;19522;45.656;11.302;2023-03-23T09:45:28;44.63;;;31.20;;
33160;SDS011;19522;45.656;11.302;2023-03-23T09:50:50;50.47;;;34.35;;
33160;SDS011;19522;45.656;11.302;2023-03-23T09:53:27;47.67;;;33.70;;
33160;SDS011;19522;45.656;11.302;2023-03-23T09:56:00;48.78;;;34.63;;
33160;SDS011;19522;45.656;11.302;2023-03-23T09:58:28;47.20;;;34.88;;
33160;SDS011;19522;45.656;11.302;2023-03-23T10:01:10;47.33;;;33.33;;
33160;SDS011;19522;45.656;11.302;2023-03-23T10:03:40;47.72;;;34.35;;
33160;SDS011;19522;45.656;11.302;2023-03-23T10:06:09;48.10;;;33.15;;
33160;SDS011;19522;45.656;11.302;2023-03-23T10:08:38;46.38;;;34.10;;
33160;SDS011;19522;45.656;11.302;2023-03-23T10:11:14;43.10;;;31.55;;
33160;SDS011;19522;45.656;11.302;2023-03-23T10:14:10;48.38;;;33.30;;
33160;SDS011;19522;45.656;11.302;2023-03-23T10:22:11;43.53;;;31.67;;
33160;SDS011;19522;45.656;11.302;2023-03-23T10:24:56;43.33;;;32.55;;
33160;SDS011;19522;45.656;11.302;2023-03-23T10:30:29;49.65;;;34.67;;
33160;SDS011;19522;45.656;11.302;2023-03-23T10:35:57;45.28;;;32.25;;
33160;SDS011;19522;45.656;11.302;2023-03-23T10:38:34;45.38;;;33.50;;
33160;SDS011;19522;45.656;11.302;2023-03-23T10:41:12;45.15;;;32.58;;
33160;SDS011;19522;45.656;11.302;2023-03-23T10:43:42;45.30;;;32.35;;
33160;SDS011;19522;45.656;11.302;2023-03-23T10:46:17;43.88;;;32.42;;
33160;SDS011;19522;45.656;11.302;2023-03-23T10:48:47;42.45;;;31.80;;
33160;SDS011;19522;45.656;11.302;2023-03-23T10:51:16;46.15;;;31.40;;
33160;SDS011;19522;45.656;11.302;2023-03-23T10:53:49;40.10;;;29.65;;
33160;SDS011;19522;45.656;11.302;2023-03-23T10:56:22;41.90;;;31.00;;
33160;SDS011;19522;45.656;11.302;2023-03-23T10:58:47;41.85;;;30.38;;
33160;SDS011;19522;45.656;11.302;2023-03-23T11:01:13;42.10;;;30.02;;
33160;SDS011;19522;45.656;11.302;2023-03-23T11:03:44;42.85;;;30.27;;
33160;SDS011;19522;45.656;11.302;2023-03-23T11:06:32;42.92;;;29.83;;
33160;SDS011;19522;45.656;11.302;2023-03-23T11:09:11;41.15;;;30.52;;
33160;SDS011;19522;45.656;11.302;2023-03-23T11:11:40;41.40;;;29.30;;
33160;SDS011;19522;45.656;11.302;2023-03-23T11:14:16;35.90;;;27.30;;
33160;SDS011;19522;45.656;11.302;2023-03-23T11:16:44;44.92;;;30.88;;
33160;SDS011;19522;45.656;11.302;2023-03-23T11:19:27;42.90;;;32.63;;
33160;SDS011;19522;45.656;11.302;2023-03-23T11:24:32;37.10;;;25.15;;
33160;SDS011;19522;45.656;11.302;2023-03-23T11:27:01;40.47;;;30.33;;
33160;SDS011;19522;45.656;11.302;2023-03-23T11:29:32;41.95;;;30.98;;
33160;SDS011;19522;45.656;11.302;2023-03-23T11:36:58;42.70;;;29.55;;
33160;SDS011;19522;45.656;11.302;2023-03-23T11:39:35;41.50;;;31.02;;
33160;SDS011;19522;45.656;11.302;2023-03-23T11:42:18;42.78;;;31.60;;
33160;SDS011;19522;45.656;11.302;2023-03-23T11:44:48;42.88;;;31.02;;
33160;SDS011;19522;45.656;11.302;2023-03-23T11:50:21;41.90;;;30.45;;
33160;SDS011;19522;45.656;11.302;2023-03-23T11:55:33;42.67;;;30.27;;
33160;SDS011;19522;45.656;11.302;2023-03-23T11:58:02;46.92;;;33.28;;
33160;SDS011;19522;45.656;11.302;2023-03-23T12:00:36;42.33;;;33.13;;
33160;SDS011;19522;45.656;11.302;2023-03-23T12:03:07;42.95;;;31.67;;
33160;SDS011;19522;45.656;11.302;2023-03-23T12:14:11;45.80;;;32.72;;
33160;SDS011;19522;45.656;11.302;2023-03-23T12:24:37;47.53;;;33.25;;
33160;SDS011;19522;45.656;11.302;2023-03-23T12:32:47;49.75;;;34.78;;
33160;SDS011;19522;45.656;11.302;2023-03-23T12:35:34;44.70;;;33.03;;
33160;SDS011;19522;45.656;11.302;2023-03-23T12:43:48;45.85;;;33.55;;
33160;SDS011;19522;45.656;11.302;2023-03-23T12:46:24;48.38;;;37.25;;
33160;SDS011;19522;45.656;11.302;2023-03-23T12:49:03;45.97;;;34.97;;
33160;SDS011;19522;45.656;11.302;2023-03-23T12:54:28;47.25;;;32.83;;
33160;SDS011;19522;45.656;11.302;2023-03-23T13:02:06;44.50;;;32.10;;
33160;SDS011;19522;45.656;11.302;2023-03-23T13:04:43;51.40;;;34.88;;
33160;SDS011;19522;45.656;11.302;2023-03-23T13:07:21;50.45;;;35.03;;
33160;SDS011;19522;45.656;11.302;2023-03-23T13:09:58;45.13;;;34.70;;
33160;SDS011;19522;45.656;11.302;2023-03-23T13:12:31;45.78;;;35.63;;
33160;SDS011;19522;45.656;11.302;2023-03-23T13:23:18;50.65;;;35.53;;
33160;SDS011;19522;45.656;11.302;2023-03-23T13:31:21;49.28;;;35.85;;
33160;SDS011;19522;45.656;11.302;2023-03-23T13:33:58;48.83;;;34.78;;
33160;SDS011;19522;45.656;11.302;2023-03-23T13:36:34;49.00;;;35.08;;
33160;SDS011;19522;45.656;11.302;2023-03-23T13:39:17;48.00;;;34.38;;
33160;SDS011;19522;45.656;11.302;2023-03-23T13:42:17;47.20;;;35.53;;
33160;SDS011;19522;45.656;11.302;2023-03-23T13:50:12;51.78;;;36.63;;
33160;SDS011;19522;45.656;11.302;2023-03-23T13:53:11;42.75;;;33.58;;
33160;SDS011;19522;45.656;11.302;2023-03-23T13:55:41;44.72;;;32.50;;
33160;SDS011;19522;45.656;11.302;2023-03-23T13:58:24;45.63;;;33.03;;
33160;SDS011;19522;45.656;11.302;2023-03-23T14:01:12;46.80;;;33.53;;
33160;SDS011;19522;45.656;11.302;2023-03-23T14:03:53;49.83;;;33.33;;
33160;SDS011;19522;45.656;11.302;2023-03-23T14:06:22;39.58;;;30.27;;
33160;SDS011;19522;45.656;11.302;2023-03-23T14:08:52;40.25;;;31.00;;
33160;SDS011;19522;45.656;11.302;2023-03-23T14:11:25;46.60;;;34.40;;
33160;SDS011;19522;45.656;11.302;2023-03-23T14:14:04;44.00;;;32.70;;
33160;SDS011;19522;45.656;11.302;2023-03-23T14:16:42;43.53;;;31.95;;
33160;SDS011;19522;45.656;11.302;2023-03-23T14:19:23;45.47;;;31.50;;
33160;SDS011;19522;45.656;11.302;2023-03-23T14:22:00;40.53;;;30.77;;
33160;SDS011;19522;45.656;11.302;2023-03-23T14:24:31;47.35;;;31.27;;
33160;SDS011;19522;45.656;11.302;2023-03-23T14:29:30;40.40;;;30.20;;
33160;SDS011;19522;45.656;11.302;2023-03-23T14:31:56;46.33;;;31.52;;
33160;SDS011;19522;45.656;11.302;2023-03-23T14:34:24;40.63;;;30.55;;
33160;SDS011;19522;45.656;11.302;2023-03-23T14:36:53;41.55;;;30.55;;
33160;SDS011;19522;45.656;11.302;2023-03-23T14:39:20;45.13;;;32.03;;
33160;SDS011;19522;45.656;11.302;2023-03-23T14:41:52;40.03;;;29.58;;
33160;SDS011;19522;45.656;11.302;2023-03-23T14:44:24;36.78;;;28.70;;
33160;SDS011;19522;45.656;11.302;2023-03-23T14:46:53;41.33;;;29.70;;
33160;SDS011;19522;45.656;11.302;2023-03-23T14:49:23;45.47;;;30.33;;
33160;SDS011;19522;45.656;11.302;2023-03-23T14:51:56;42.67;;;30.15;;
33160;SDS011;19522;45.656;11.302;2023-03-23T14:54:24;37.90;;;28.92;;
33160;SDS011;19522;45.656;11.302;2023-03-23T14:56:51;42.85;;;27.75;;
33160;SDS011;19522;45.656;11.302;2023-03-23T14:59:17;39.15;;;31.13;;
33160;SDS011;19522;45.656;11.302;2023-03-23T15:01:43;40.78;;;29.90;;
33160;SDS011;19522;45.656;11.302;2023-03-23T15:04:19;43.30;;;30.85;;
33160;SDS011;19522;45.656;11.302;2023-03-23T15:07:00;44.15;;;31.45;;
33160;SDS011;19522;45.656;11.302;2023-03-23T15:09:28;43.75;;;32.50;;
33160;SDS011;19522;45.656;11.302;2023-03-23T15:11:56;41.67;;;30.67;;
33160;SDS011;19522;45.656;11.302;2023-03-23T15:17:29;46.03;;;32.92;;
33160;SDS011;19522;45.656;11.302;2023-03-23T15:19:58;49.05;;;34.13;;
33160;SDS011;19522;45.656;11.302;2023-03-23T15:22:33;45.08;;;32.72;;
33160;SDS011;19522;45.656;11.302;2023-03-23T15:25:18;45.60;;;33.22;;
33160;SDS011;19522;45.656;11.302;2023-03-23T15:27:51;45.88;;;32.13;;
33160;SDS011;19522;45.656;11.302;2023-03-23T15:30:29;47.33;;;32.92;;
33160;SDS011;19522;45.656;11.302;2023-03-23T15:33:02;45.40;;;33.30;;
33160;SDS011;19522;45.656;11.302;2023-03-23T15:35:36;44.05;;;31.67;;
33160;SDS011;19522;45.656;11.302;2023-03-23T15:38:05;41.83;;;30.85;;
33160;SDS011;19522;45.656;11.302;2023-03-23T15:40:35;39.53;;;29.13;;
33160;SDS011;19522;45.656;11.302;2023-03-23T15:48:28;49.75;;;35.03;;
33160;SDS011;19522;45.656;11.302;2023-03-23T15:50:55;49.45;;;34.95;;
33160;SDS011;19522;45.656;11.302;2023-03-23T15:53:37;48.90;;;34.15;;
33160;SDS011;19522;45.656;11.302;2023-03-23T15:56:06;44.87;;;32.00;;
33160;SDS011;19522;45.656;11.302;2023-03-23T15:58:33;50.90;;;34.78;;
33160;SDS011;19522;45.656;11.302;2023-03-23T16:01:01;49.28;;;35.80;;
33160;SDS011;19522;45.656;11.302;2023-03-23T16:06:09;48.40;;;35.30;;
33160;SDS011;19522;45.656;11.302;2023-03-23T16:08:36;47.95;;;34.42;;
33160;SDS011;19522;45.656;11.302;2023-03-23T16:11:05;46.50;;;32.47;;
33160;SDS011;19522;45.656;11.302;2023-03-23T16:13:32;44.55;;;33.90;;
33160;SDS011;19522;45.656;11.302;2023-03-23T16:15:57;45.85;;;33.95;;
33160;SDS011;19522;45.656;11.302;2023-03-23T16:18:23;45.97;;;34.58;;
33160;SDS011;19522;45.656;11.302;2023-03-23T16:20:48;42.28;;;33.33;;
33160;SDS011;19522;45.656;11.302;2023-03-23T16:23:14;45.03;;;34.33;;
33160;SDS011;19522;45.656;11.302;2023-03-23T16:25:41;44.63;;;31.52;;